Eltopia, Washington
Current Conditions -  °F | °C
As of 7:53 AM on Saturday 20 Dec 2014 (Local Time) from KPSC Reporting Station
Light Rain Light Rain  
Wind Chill: 36°   Ceiling: 9000
Heat Index: 39°   Visibility: 10mi
Dew Point: 39°   Wind: 5mph
Humidity: 100%   Direction: 240°WSW
Pressure: 29.83"   Gusts: NA
Location:  46.46°N, 119.02°W
Report Text: KPSC 201553Z 24004KT 10SM -RA FEW070 OVC090 04/04 A2983 RMK AO2 RAB51 SLP102 P0000 T00390039
Loading
Personal Weather Stations






























Interactive Weather Map New forecast layout! Learn more

10-Day Weather Forecast

Advertisements
Track Severe Weather on mobile